createdAt,value
2018-10-19T00:00:49.558Z,11.80
2018-10-19T00:02:53.633Z,11.80
2018-10-19T00:04:57.410Z,11.70
2018-10-19T00:07:01.100Z,11.70
2018-10-19T00:09:07.003Z,11.60
2018-10-19T00:11:10.664Z,11.60
2018-10-19T00:13:14.450Z,11.60
2018-10-19T00:15:18.182Z,11.60
2018-10-19T00:17:21.876Z,11.50
2018-10-19T00:19:25.667Z,11.50
2018-10-19T00:21:29.353Z,11.50
2018-10-19T00:23:33.136Z,11.40
2018-10-19T00:25:36.821Z,11.40
2018-10-19T00:27:40.701Z,11.40
2018-10-19T00:29:46.023Z,11.40
2018-10-19T00:31:56.768Z,11.30
2018-10-19T00:34:00.548Z,11.30
2018-10-19T00:36:04.415Z,11.30
2018-10-19T00:38:08.377Z,11.20
2018-10-19T00:40:12.325Z,11.20
2018-10-19T00:42:16.061Z,11.20
2018-10-19T00:44:20.316Z,11.20
2018-10-19T00:46:24.079Z,11.20
2018-10-19T00:48:27.857Z,11.20
2018-10-19T00:50:31.694Z,11.10
2018-10-19T00:52:35.384Z,11.10
2018-10-19T00:54:39.109Z,11.10
2018-10-19T00:56:42.807Z,11.10
2018-10-19T00:58:46.553Z,11.00
2018-10-19T01:00:50.359Z,11.00
2018-10-19T01:02:54.138Z,11.00
2018-10-19T01:04:57.938Z,10.90
2018-10-19T01:07:01.612Z,10.90
2018-10-19T01:09:06.663Z,10.90
2018-10-19T01:11:10.431Z,10.80
2018-10-19T01:13:14.107Z,10.80
2018-10-19T01:15:17.876Z,10.80
2018-10-19T01:17:21.549Z,10.80
2018-10-19T01:19:25.253Z,10.70
2018-10-19T01:21:28.992Z,10.70
2018-10-19T01:23:32.713Z,10.70
2018-10-19T01:25:40.559Z,10.60
2018-10-19T01:27:44.286Z,10.60
2018-10-19T01:29:48.040Z,10.60
2018-10-19T01:31:52.350Z,10.60
2018-10-19T01:33:56.061Z,10.50
2018-10-19T01:35:59.811Z,10.50
2018-10-19T01:38:03.648Z,10.50
2018-10-19T01:40:09.196Z,10.50
2018-10-19T01:42:12.976Z,10.40
2018-10-19T01:44:16.703Z,10.40
2018-10-19T01:46:20.392Z,10.40
2018-10-19T01:48:24.378Z,10.40
2018-10-19T01:50:28.113Z,10.40
2018-10-19T01:52:31.822Z,10.30
2018-10-19T01:54:35.561Z,10.30
2018-10-19T01:56:39.365Z,10.30
2018-10-19T01:58:43.062Z,10.20
2018-10-19T02:00:46.888Z,10.20
2018-10-19T02:02:50.567Z,10.20
2018-10-19T02:04:54.355Z,10.20
2018-10-19T02:06:58.091Z,10.10
2018-10-19T02:09:01.785Z,10.10
2018-10-19T02:11:05.613Z,10.10
2018-10-19T02:13:10.206Z,10.10
2018-10-19T02:15:13.996Z,10.10
2018-10-19T02:17:17.652Z,10.00
2018-10-19T02:19:21.344Z,10.00
2018-10-19T02:21:25.102Z,10.00
2018-10-19T02:23:28.822Z,9.90
2018-10-19T02:25:32.582Z,10.00
2018-10-19T02:27:36.927Z,9.90
2018-10-19T02:29:40.625Z,9.90
2018-10-19T02:31:44.332Z,9.90
2018-10-19T02:33:48.046Z,9.90
2018-10-19T02:35:51.820Z,9.90
2018-10-19T02:37:55.546Z,9.90
2018-10-19T02:39:59.312Z,9.80
2018-10-19T02:42:03.184Z,9.80
2018-10-19T02:44:06.881Z,9.80
2018-10-19T02:46:10.593Z,9.80
2018-10-19T02:48:14.312Z,9.80
2018-10-19T02:50:18.048Z,9.80
2018-10-19T02:52:21.861Z,9.80
2018-10-19T02:54:25.792Z,9.70
2018-10-19T02:56:29.509Z,9.70
2018-10-19T02:58:33.389Z,9.70
2018-10-19T03:00:37.148Z,9.70
2018-10-19T03:02:41.478Z,9.70
2018-10-19T03:04:45.164Z,9.60
2018-10-19T03:06:48.900Z,9.60
2018-10-19T03:08:52.616Z,9.60
2018-10-19T03:10:56.344Z,9.60
2018-10-19T03:13:00.303Z,9.50
2018-10-19T03:15:04.312Z,9.50
2018-10-19T03:17:08.062Z,9.50
2018-10-19T03:19:11.833Z,9.50
2018-10-19T03:21:16.339Z,9.40
2018-10-19T03:23:20.020Z,9.40
2018-10-19T03:25:23.781Z,9.40
2018-10-19T03:27:27.563Z,9.40
2018-10-19T03:29:31.245Z,9.40
2018-10-19T03:31:34.969Z,9.30
2018-10-19T03:33:38.690Z,9.30
2018-10-19T03:35:42.397Z,9.30
2018-10-19T03:37:46.113Z,9.30
2018-10-19T03:39:50.150Z,9.30
2018-10-19T03:41:54.387Z,9.30
2018-10-19T03:43:59.318Z,9.20
2018-10-19T03:46:03.035Z,9.20
2018-10-19T03:48:06.857Z,9.20
2018-10-19T03:50:10.976Z,9.10
2018-10-19T03:52:14.706Z,9.10
2018-10-19T03:54:18.537Z,9.10
2018-10-19T03:56:22.466Z,9.10
2018-10-19T03:58:26.182Z,9.00
2018-10-19T04:00:29.963Z,9.00
2018-10-19T04:02:33.734Z,9.00
2018-10-19T04:04:37.500Z,9.00
2018-10-19T04:06:41.189Z,9.00
2018-10-19T04:08:45.206Z,9.00
2018-10-19T04:10:48.925Z,9.00
2018-10-19T04:12:52.664Z,9.00
2018-10-19T04:14:56.398Z,9.00
2018-10-19T04:17:00.178Z,9.00
2018-10-19T04:19:04.026Z,9.00
2018-10-19T04:21:07.736Z,9.00
2018-10-19T04:23:11.527Z,8.90
2018-10-19T04:25:15.206Z,8.90
2018-10-19T04:27:18.928Z,8.90
2018-10-19T04:29:22.693Z,8.90
2018-10-19T04:31:26.392Z,8.90
2018-10-19T04:33:30.378Z,8.90
2018-10-19T04:35:34.176Z,8.90
2018-10-19T04:37:37.912Z,8.90
2018-10-19T04:39:41.657Z,8.90
2018-10-19T04:41:45.503Z,8.90
2018-10-19T04:43:49.258Z,8.80
2018-10-19T04:45:53.003Z,8.80
2018-10-19T04:47:57.924Z,8.80
2018-10-19T04:50:01.700Z,8.80
2018-10-19T04:52:05.721Z,8.80
2018-10-19T04:54:09.476Z,8.80
2018-10-19T04:56:14.180Z,8.80
2018-10-19T04:58:18.126Z,8.80
2018-10-19T05:00:22.352Z,8.80
2018-10-19T05:02:26.617Z,8.80
2018-10-19T05:04:30.404Z,8.80
2018-10-19T05:06:34.360Z,8.80
2018-10-19T05:08:38.173Z,8.90
2018-10-19T05:10:41.961Z,8.80
2018-10-19T05:12:46.090Z,8.90
2018-10-19T05:14:49.975Z,8.80
2018-10-19T05:16:53.886Z,8.80
2018-10-19T05:18:57.722Z,8.80
2018-10-19T05:21:01.545Z,8.80
2018-10-19T05:23:05.866Z,8.80
2018-10-19T05:25:12.343Z,8.80
2018-10-19T05:27:16.224Z,8.80
2018-10-19T05:29:19.993Z,8.70
2018-10-19T05:31:24.749Z,8.70
2018-10-19T05:33:28.526Z,8.70
2018-10-19T05:35:32.320Z,8.70
2018-10-19T05:37:36.638Z,8.70
2018-10-19T05:39:40.493Z,8.70
2018-10-19T05:41:44.322Z,8.60
2018-10-19T05:43:48.099Z,8.60
2018-10-19T05:45:52.004Z,8.60
2018-10-19T05:47:55.936Z,8.60
2018-10-19T05:50:00.241Z,8.50
2018-10-19T05:52:04.304Z,8.60
2018-10-19T05:54:08.349Z,8.50
2018-10-19T05:56:12.536Z,8.50
2018-10-19T05:58:16.427Z,8.50
2018-10-19T06:00:20.949Z,8.50
2018-10-19T06:02:25.177Z,8.50
2018-10-19T06:04:29.181Z,8.50
2018-10-19T06:06:33.164Z,8.50
2018-10-19T06:08:37.641Z,8.40
2018-10-19T06:10:41.625Z,8.40
2018-10-19T06:12:45.603Z,8.50
2018-10-19T06:14:49.681Z,8.40
2018-10-19T06:16:54.209Z,8.40
2018-10-19T06:18:58.294Z,8.40
2018-10-19T06:21:02.692Z,8.40
2018-10-19T06:23:06.893Z,8.30
2018-10-19T06:25:10.904Z,8.30
2018-10-19T06:27:14.980Z,8.40
2018-10-19T06:29:19.064Z,8.40
2018-10-19T06:31:23.104Z,8.40
2018-10-19T06:33:27.176Z,8.40
2018-10-19T06:35:31.405Z,8.40
2018-10-19T06:37:35.487Z,8.40
2018-10-19T06:41:58.468Z,8.50
2018-10-19T06:44:02.501Z,8.50
2018-10-19T06:46:06.728Z,8.50
2018-10-19T06:48:10.791Z,8.60
2018-10-19T06:50:14.945Z,8.60
2018-10-19T06:52:18.879Z,8.70
2018-10-19T06:54:23.028Z,8.70
2018-10-19T06:56:26.970Z,8.80
2018-10-19T06:58:31.199Z,8.80
2018-10-19T07:00:35.189Z,8.90
2018-10-19T07:02:39.279Z,9.00
2018-10-19T07:04:44.119Z,9.00
2018-10-19T07:06:48.325Z,9.10
2018-10-19T07:08:52.453Z,9.10
2018-10-19T07:10:57.096Z,9.20
2018-10-19T07:13:01.202Z,9.30
2018-10-19T07:15:06.673Z,9.30
2018-10-19T07:17:10.798Z,9.40
2018-10-19T07:19:14.781Z,9.50
2018-10-19T07:21:19.305Z,9.60
2018-10-19T07:23:23.396Z,9.70
2018-10-19T07:25:27.859Z,9.80
2018-10-19T07:27:32.365Z,10.00
2018-10-19T07:29:36.526Z,10.10
2018-10-19T07:31:40.662Z,10.30
2018-10-19T07:33:44.651Z,10.50
2018-10-19T07:35:48.802Z,10.80
2018-10-19T07:37:53.768Z,11.10
2018-10-19T07:39:57.909Z,11.40
2018-10-19T07:42:02.157Z,11.60
2018-10-19T07:44:06.549Z,11.80
2018-10-19T07:46:10.578Z,11.80
2018-10-19T07:48:14.856Z,11.80
2018-10-19T07:50:18.918Z,11.80
2018-10-19T07:52:23.031Z,11.80
2018-10-19T07:54:27.063Z,11.80
2018-10-19T07:56:31.128Z,11.90
2018-10-19T07:58:35.296Z,11.90
2018-10-19T08:00:39.266Z,11.90
2018-10-19T08:02:43.327Z,12.00
2018-10-19T08:04:47.282Z,12.20
2018-10-19T08:06:51.236Z,12.40
2018-10-19T08:08:55.265Z,12.60
2018-10-19T08:10:59.423Z,12.70
2018-10-19T08:13:04.008Z,12.90
2018-10-19T08:15:09.206Z,13.00
2018-10-19T08:17:13.259Z,13.00
2018-10-19T08:19:17.241Z,13.20
2018-10-19T08:21:22.236Z,13.30
2018-10-19T08:23:26.270Z,13.40
2018-10-19T08:25:30.352Z,13.50
2018-10-19T08:27:34.399Z,13.70
2018-10-19T08:29:38.398Z,13.90
2018-10-19T08:31:42.670Z,14.00
2018-10-19T08:33:46.711Z,14.10
2018-10-19T08:35:50.720Z,14.20
2018-10-19T08:37:54.906Z,14.30
2018-10-19T08:39:59.515Z,14.30
2018-10-19T08:42:03.631Z,14.30
2018-10-19T08:44:07.620Z,14.20
2018-10-19T08:46:16.771Z,14.20
2018-10-19T08:48:20.892Z,14.20
2018-10-19T08:50:24.885Z,14.10
2018-10-19T08:52:30.029Z,14.00
2018-10-19T08:54:34.151Z,14.00
2018-10-19T08:56:38.702Z,14.00
2018-10-19T08:58:42.753Z,14.00
2018-10-19T09:00:46.718Z,14.00
2018-10-19T09:02:50.783Z,14.00
2018-10-19T09:04:54.893Z,14.00
2018-10-19T09:06:58.866Z,14.10
2018-10-19T09:09:03.025Z,14.20
2018-10-19T09:11:07.287Z,14.20
2018-10-19T09:13:11.684Z,14.30
2018-10-19T09:15:15.772Z,14.30
2018-10-19T09:17:19.853Z,14.40
2018-10-19T09:19:23.877Z,14.50
2018-10-19T09:21:27.920Z,14.60
2018-10-19T09:23:32.029Z,14.70
2018-10-19T09:25:36.497Z,14.80
2018-10-19T09:27:40.606Z,14.90
2018-10-19T09:29:44.770Z,14.90
2018-10-19T09:31:48.775Z,15.00
2018-10-19T09:33:53.273Z,15.10
2018-10-19T09:35:57.377Z,15.20
2018-10-19T09:38:01.323Z,15.10
2018-10-19T09:40:05.541Z,15.10
2018-10-19T09:42:10.110Z,15.10
2018-10-19T09:44:13.701Z,15.20
2018-10-19T09:46:17.537Z,15.30
2018-10-19T09:48:21.251Z,15.30
2018-10-19T09:50:25.118Z,15.40
2018-10-19T09:52:28.845Z,15.70
2018-10-19T09:54:33.404Z,16.00
2018-10-19T09:56:37.158Z,16.20
2018-10-19T09:58:40.844Z,16.40
2018-10-19T10:00:49.964Z,16.70
2018-10-19T10:02:53.771Z,16.90
2018-10-19T10:04:57.520Z,16.90
2018-10-19T10:07:01.255Z,17.10
2018-10-19T10:09:13.373Z,17.40
2018-10-19T10:11:17.345Z,17.80
2018-10-19T10:13:21.113Z,18.10
2018-10-19T10:15:24.965Z,18.30
2018-10-19T10:17:28.590Z,18.50
2018-10-19T10:19:32.292Z,18.50
2018-10-19T10:21:36.067Z,18.60
2018-10-19T10:23:39.908Z,18.50
2018-10-19T10:25:43.786Z,18.70
2018-10-19T10:27:47.603Z,18.80
2018-10-19T10:29:51.306Z,19.00
2018-10-19T10:31:55.103Z,19.30
2018-10-19T10:33:59.034Z,19.40
2018-10-19T10:36:02.878Z,19.50
2018-10-19T10:38:06.943Z,19.70
2018-10-19T10:40:11.059Z,19.80
2018-10-19T10:42:15.381Z,19.80
2018-10-19T10:44:19.090Z,19.80
2018-10-19T10:46:22.955Z,19.90
2018-10-19T10:48:26.635Z,19.90
2018-10-19T10:50:31.066Z,19.90
2018-10-19T10:52:34.761Z,19.80
2018-10-19T10:54:38.504Z,19.90
2018-10-19T10:56:42.238Z,20.20
2018-10-19T10:58:45.932Z,20.30
2018-10-19T11:00:49.672Z,20.20
2018-10-19T11:02:53.396Z,20.10
2018-10-19T11:04:57.111Z,19.90
2018-10-19T11:07:00.939Z,20.00
2018-10-19T11:09:05.953Z,20.20
2018-10-19T11:11:12.747Z,20.50
2018-10-19T11:13:16.540Z,20.50
2018-10-19T11:15:20.266Z,20.70
2018-10-19T11:17:24.005Z,20.90
2018-10-19T11:19:27.741Z,21.30
2018-10-19T11:21:31.514Z,21.40
2018-10-19T11:23:35.325Z,21.20
2018-10-19T11:25:39.019Z,21.00
2018-10-19T11:27:42.795Z,21.10
2018-10-19T11:29:46.496Z,21.40
2018-10-19T11:31:50.211Z,21.30
2018-10-19T11:33:53.958Z,21.20
2018-10-19T11:35:58.267Z,21.20
2018-10-19T11:38:02.175Z,21.20
2018-10-19T11:40:31.239Z,21.20
2018-10-19T11:42:34.992Z,21.10
2018-10-19T11:44:38.750Z,21.10
2018-10-19T11:46:42.492Z,21.10
2018-10-19T11:48:46.292Z,21.10
2018-10-19T11:50:49.973Z,21.30
2018-10-19T11:52:53.694Z,21.50
2018-10-19T11:54:57.414Z,21.70
2018-10-19T11:57:01.182Z,21.70
2018-10-19T11:59:05.279Z,21.70
2018-10-19T12:01:09.107Z,21.60
2018-10-19T12:03:12.801Z,21.50
2018-10-19T12:05:16.506Z,21.40
2018-10-19T12:07:20.557Z,21.20
2018-10-19T12:09:25.097Z,21.20
2018-10-19T12:11:29.232Z,21.20
2018-10-19T12:13:32.934Z,21.50
2018-10-19T12:15:36.628Z,21.70
2018-10-19T12:17:41.364Z,21.90
2018-10-19T12:19:45.024Z,21.80
2018-10-19T12:21:48.741Z,22.00
2018-10-19T12:23:52.493Z,21.90
2018-10-19T12:25:56.242Z,21.80
2018-10-19T12:27:59.961Z,21.80
2018-10-19T12:30:03.772Z,21.40
2018-10-19T12:32:08.195Z,21.40
2018-10-19T12:34:11.991Z,21.40
2018-10-19T12:36:15.721Z,21.50
2018-10-19T12:38:19.619Z,21.70
2018-10-19T12:40:23.402Z,21.70
2018-10-19T12:42:27.871Z,21.70
2018-10-19T12:44:32.443Z,21.60
2018-10-19T12:46:48.684Z,21.60
2018-10-19T12:48:52.524Z,21.40
2018-10-19T12:50:56.418Z,21.10
2018-10-19T12:53:00.128Z,21.00
2018-10-19T12:55:04.077Z,20.80
2018-10-19T12:57:09.756Z,20.60
2018-10-19T12:59:13.546Z,20.60
2018-10-19T13:01:17.417Z,20.50
2018-10-19T13:03:21.254Z,20.40
2018-10-19T13:05:24.970Z,20.50
2018-10-19T13:07:28.860Z,20.50
2018-10-19T13:09:32.664Z,20.70
2018-10-19T13:11:36.527Z,20.90
2018-10-19T13:13:40.238Z,21.00
2018-10-19T13:15:44.101Z,21.10
2018-10-19T13:17:47.926Z,21.40
2018-10-19T13:19:51.890Z,21.70
2018-10-19T13:21:55.966Z,21.90
2018-10-19T13:24:00.991Z,21.80
2018-10-19T13:26:04.924Z,21.90
2018-10-19T13:28:08.843Z,21.70
2018-10-19T13:30:13.183Z,21.50
2018-10-19T13:32:17.018Z,21.60
2018-10-19T13:34:21.438Z,21.80
2018-10-19T13:36:25.104Z,21.60
2018-10-19T13:38:28.873Z,21.40
2018-10-19T13:40:34.953Z,21.30
2018-10-19T13:42:38.698Z,21.20
2018-10-19T13:44:42.432Z,21.20
2018-10-19T13:46:46.133Z,21.30
2018-10-19T13:48:50.076Z,21.40
2018-10-19T13:50:53.917Z,21.30
2018-10-19T13:52:57.775Z,21.40
2018-10-19T13:55:01.795Z,21.40
2018-10-19T13:57:05.975Z,21.40
2018-10-19T13:59:09.780Z,21.30
2018-10-19T14:01:13.425Z,21.30
2018-10-19T14:03:17.165Z,21.30
2018-10-19T14:05:20.959Z,21.20
2018-10-19T14:07:26.014Z,21.20
2018-10-19T14:09:30.481Z,21.20
2018-10-19T14:11:34.176Z,21.10
2018-10-19T14:13:37.944Z,21.10
2018-10-19T14:15:41.653Z,21.10
2018-10-19T14:17:45.376Z,20.90
2018-10-19T14:19:49.193Z,20.80
2018-10-19T14:21:52.890Z,20.80
2018-10-19T14:23:56.636Z,20.80
2018-10-19T14:26:00.836Z,20.80
2018-10-19T14:28:04.605Z,20.70
2018-10-19T14:30:10.674Z,20.60
2018-10-19T14:32:15.370Z,20.60
2018-10-19T14:34:19.814Z,20.60
2018-10-19T14:36:24.381Z,20.70
2018-10-19T14:38:28.584Z,20.60
2018-10-19T14:40:32.389Z,20.60
2018-10-19T14:42:36.220Z,20.60
2018-10-19T14:44:40.261Z,20.70
2018-10-19T14:46:43.962Z,20.70
2018-10-19T14:48:47.876Z,20.70
2018-10-19T14:50:51.842Z,20.70
2018-10-19T14:52:55.615Z,20.60
2018-10-19T14:54:59.441Z,20.50
2018-10-19T14:57:03.268Z,20.40
2018-10-19T14:59:07.091Z,20.30
2018-10-19T15:01:10.873Z,20.20
2018-10-19T15:03:14.863Z,20.00
2018-10-19T15:05:19.753Z,19.90
2018-10-19T15:07:23.473Z,19.80
2018-10-19T15:09:27.366Z,19.70
2018-10-19T15:11:31.211Z,19.60
2018-10-19T15:13:34.872Z,19.50
2018-10-19T15:15:38.812Z,19.50
2018-10-19T15:17:42.753Z,19.40
2018-10-19T15:19:46.534Z,19.30
2018-10-19T15:21:50.285Z,19.20
2018-10-19T15:23:54.086Z,19.20
2018-10-19T15:25:57.822Z,19.10
2018-10-19T15:28:01.574Z,19.10
2018-10-19T15:30:06.138Z,19.00
2018-10-19T15:32:09.856Z,19.00
2018-10-19T15:34:13.609Z,18.90
2018-10-19T15:36:17.582Z,18.90
2018-10-19T15:38:21.757Z,18.80
2018-10-19T15:40:25.650Z,18.80
2018-10-19T15:42:29.472Z,18.70
2018-10-19T15:44:33.834Z,18.70
2018-10-19T15:46:38.134Z,18.60
2018-10-19T15:48:42.588Z,18.50
2018-10-19T15:50:47.572Z,18.50
2018-10-19T15:52:51.284Z,18.40
2018-10-19T15:54:56.163Z,18.30
2018-10-19T15:57:00.356Z,18.30
2018-10-19T15:59:04.105Z,18.30
2018-10-19T16:01:07.825Z,18.20
2018-10-19T16:03:12.376Z,18.10
2018-10-19T16:05:16.325Z,18.00
2018-10-19T16:07:20.240Z,17.90
2018-10-19T16:09:25.598Z,17.80
2018-10-19T16:11:29.670Z,17.80
2018-10-19T16:13:34.195Z,17.60
2018-10-19T16:15:38.445Z,17.60
2018-10-19T16:17:42.276Z,17.50
2018-10-19T16:19:45.934Z,17.40
2018-10-19T16:21:50.643Z,17.30
2018-10-19T16:23:54.410Z,17.20
2018-10-19T16:25:59.149Z,17.20
2018-10-19T16:28:03.007Z,17.20
2018-10-19T16:30:08.844Z,17.10
2018-10-19T16:32:12.566Z,17.00
2018-10-19T16:34:16.411Z,17.00
2018-10-19T16:36:20.235Z,16.90
2018-10-19T16:38:24.165Z,16.80
2018-10-19T16:40:27.880Z,16.80
2018-10-19T16:42:31.676Z,16.70
2018-10-19T16:44:35.456Z,16.70
2018-10-19T16:46:39.270Z,16.60
2018-10-19T16:48:43.770Z,16.50
2018-10-19T16:50:47.536Z,16.50
2018-10-19T16:52:52.372Z,16.50
2018-10-19T16:54:56.117Z,16.40
2018-10-19T16:56:59.871Z,16.40
2018-10-19T16:59:03.649Z,16.30
2018-10-19T17:01:07.442Z,16.30
2018-10-19T17:03:11.188Z,16.30
2018-10-19T17:05:15.328Z,16.20
2018-10-19T17:07:21.757Z,16.20
2018-10-19T17:09:27.463Z,16.10
2018-10-19T17:11:32.568Z,16.10
2018-10-19T17:13:36.279Z,16.00
2018-10-19T17:15:39.944Z,15.90
2018-10-19T17:17:45.576Z,15.90
2018-10-19T17:19:49.323Z,15.80
2018-10-19T17:21:55.787Z,15.70
2018-10-19T17:24:01.163Z,15.60
2018-10-19T17:26:05.377Z,15.50
2018-10-19T17:28:11.746Z,15.50
2018-10-19T17:30:17.414Z,15.40
2018-10-19T17:32:21.119Z,15.30
2018-10-19T17:34:24.880Z,15.30
2018-10-19T17:36:28.874Z,15.20
2018-10-19T17:38:33.955Z,15.20
2018-10-19T17:40:38.128Z,15.10
2018-10-19T17:42:42.887Z,15.00
2018-10-19T17:44:47.107Z,15.00
2018-10-19T17:46:53.310Z,14.90
2018-10-19T17:48:57.273Z,14.80
2018-10-19T17:51:02.029Z,14.80
2018-10-19T17:53:06.912Z,14.80
2018-10-19T17:55:13.405Z,14.70
2018-10-19T17:57:17.188Z,14.70
2018-10-19T17:59:21.888Z,14.60
2018-10-19T18:01:26.129Z,14.60
2018-10-19T18:03:29.879Z,14.50
2018-10-19T18:05:33.598Z,14.40
2018-10-19T18:07:37.417Z,14.30
2018-10-19T18:09:41.687Z,14.30
2018-10-19T18:11:48.394Z,14.30
2018-10-19T18:13:53.965Z,14.20
2018-10-19T18:15:59.013Z,14.20
2018-10-19T18:18:02.700Z,14.20
2018-10-19T18:20:09.220Z,14.10
2018-10-19T18:22:13.221Z,14.00
2018-10-19T18:24:16.880Z,14.00
2018-10-19T18:26:20.616Z,14.00
2018-10-19T18:28:25.144Z,13.90
2018-10-19T18:30:28.934Z,13.90
2018-10-19T18:32:34.555Z,13.80
2018-10-19T18:34:38.304Z,13.70
2018-10-19T18:36:43.187Z,13.70
2018-10-19T18:38:47.196Z,13.60
2018-10-19T18:40:52.719Z,13.60
2018-10-19T18:42:57.210Z,13.50
2018-10-19T18:45:01.869Z,13.50
2018-10-19T18:47:07.247Z,13.40
2018-10-19T18:49:11.580Z,13.40
2018-10-19T18:51:16.569Z,13.30
2018-10-19T18:53:21.177Z,13.30
2018-10-19T18:55:26.098Z,13.20
2018-10-19T18:57:29.863Z,13.20
2018-10-19T18:59:33.623Z,13.20
2018-10-19T19:01:37.450Z,13.10
2018-10-19T19:03:41.236Z,13.10
2018-10-19T19:05:46.205Z,13.10
2018-10-19T19:07:50.242Z,13.10
2018-10-19T19:09:59.586Z,13.00
2018-10-19T19:12:03.381Z,13.00
2018-10-19T19:14:07.201Z,13.00
2018-10-19T19:16:17.062Z,13.00
2018-10-19T19:18:20.797Z,12.90
2018-10-19T19:20:28.040Z,12.90
2018-10-19T19:22:32.836Z,12.80
2018-10-19T19:24:41.873Z,12.80
2018-10-19T19:26:46.364Z,12.70
2018-10-19T19:28:50.121Z,12.70
2018-10-19T19:30:53.880Z,12.60
2018-10-19T19:33:05.416Z,12.60
2018-10-19T19:35:09.231Z,12.60
2018-10-19T19:37:12.900Z,12.60
2018-10-19T19:39:16.987Z,12.60
2018-10-19T19:41:25.954Z,12.50
2018-10-19T19:43:29.722Z,12.50
2018-10-19T19:45:33.597Z,12.50
2018-10-19T19:47:43.073Z,12.40
2018-10-19T19:49:47.033Z,12.40
2018-10-19T19:51:50.999Z,12.30
2018-10-19T19:53:54.944Z,12.20
2018-10-19T19:55:58.807Z,12.20
2018-10-19T19:58:03.217Z,12.20
2018-10-19T20:00:08.987Z,12.10
2018-10-19T20:02:13.707Z,12.10
2018-10-19T20:04:17.645Z,12.00
2018-10-19T20:06:21.387Z,12.00
2018-10-19T20:08:25.264Z,12.00
2018-10-19T20:10:29.143Z,11.90
2018-10-19T20:12:33.061Z,11.90
2018-10-19T20:14:36.868Z,11.90
2018-10-19T20:16:41.028Z,11.80
2018-10-19T20:18:44.722Z,11.80
2018-10-19T20:20:48.857Z,11.80
2018-10-19T20:22:53.164Z,11.80
2018-10-19T20:24:57.644Z,11.80
2018-10-19T20:27:01.489Z,11.70
2018-10-19T20:29:05.431Z,11.70
2018-10-19T20:31:11.326Z,11.70
2018-10-19T20:33:19.279Z,11.60
2018-10-19T20:35:27.143Z,11.60
2018-10-19T20:37:31.235Z,11.60
2018-10-19T20:39:35.033Z,11.60
2018-10-19T20:41:39.608Z,11.50
2018-10-19T20:43:43.339Z,11.50
2018-10-19T20:45:47.265Z,11.50
2018-10-19T20:47:51.236Z,11.50
2018-10-19T20:49:55.010Z,11.40
2018-10-19T20:51:58.970Z,11.40
2018-10-19T20:54:03.066Z,11.40
2018-10-19T20:56:06.892Z,11.40
2018-10-19T20:58:10.555Z,11.40
2018-10-19T21:00:15.117Z,11.40
2018-10-19T21:02:18.916Z,11.40
2018-10-19T21:04:22.733Z,11.40
2018-10-19T21:06:26.540Z,11.30
2018-10-19T21:08:30.232Z,11.30
2018-10-19T21:10:33.944Z,11.30
2018-10-19T21:12:37.876Z,11.30
2018-10-19T21:14:41.638Z,11.30
2018-10-19T21:16:45.331Z,11.30
2018-10-19T21:18:48.998Z,11.20
2018-10-19T21:20:52.753Z,11.20
2018-10-19T21:22:56.521Z,11.10
2018-10-19T21:25:00.268Z,11.10
2018-10-19T21:27:04.062Z,11.10
2018-10-19T21:29:07.815Z,11.10
2018-10-19T21:31:11.494Z,11.00
2018-10-19T21:33:15.183Z,11.00
2018-10-19T21:35:18.941Z,11.00
2018-10-19T21:37:22.651Z,10.90
2018-10-19T21:39:26.387Z,10.90
2018-10-19T21:41:30.111Z,10.90
2018-10-19T21:43:33.815Z,10.80
2018-10-19T21:45:37.547Z,10.80
2018-10-19T21:47:41.218Z,10.80
2018-10-19T21:49:44.910Z,10.80
2018-10-19T21:51:48.798Z,10.70
2018-10-19T21:53:52.523Z,10.70
2018-10-19T21:55:56.395Z,10.60
2018-10-19T21:58:00.182Z,10.60
2018-10-19T22:00:03.975Z,10.60
2018-10-19T22:02:07.701Z,10.60
2018-10-19T22:04:11.417Z,10.50
2018-10-19T22:06:15.185Z,10.50
2018-10-19T22:08:19.747Z,10.40
2018-10-19T22:10:23.497Z,10.40
2018-10-19T22:12:27.225Z,10.40
2018-10-19T22:14:30.909Z,10.40
2018-10-19T22:16:34.608Z,10.40
2018-10-19T22:18:38.284Z,10.40
2018-10-19T22:20:41.993Z,10.40
2018-10-19T22:22:45.752Z,10.40
2018-10-19T22:24:49.455Z,10.40
2018-10-19T22:26:53.219Z,10.40
2018-10-19T22:28:56.924Z,10.40
2018-10-19T22:31:00.685Z,10.40
2018-10-19T22:33:04.335Z,10.40
2018-10-19T22:35:08.280Z,10.30
2018-10-19T22:37:11.970Z,10.30
2018-10-19T22:39:15.657Z,10.30
2018-10-19T22:41:19.742Z,10.20
2018-10-19T22:43:23.414Z,10.20
2018-10-19T22:45:28.049Z,10.20
2018-10-19T22:47:31.797Z,10.10
2018-10-19T22:49:35.552Z,10.10
2018-10-19T22:51:39.348Z,10.10
2018-10-19T22:53:43.075Z,10.10
2018-10-19T22:55:46.782Z,10.10
2018-10-19T22:57:50.492Z,10.10
2018-10-19T22:59:54.396Z,10.00
2018-10-19T23:01:58.161Z,10.00
2018-10-19T23:04:01.992Z,10.00
2018-10-19T23:06:06.161Z,10.00
2018-10-19T23:08:09.843Z,10.00
2018-10-19T23:10:13.861Z,10.00
2018-10-19T23:12:17.606Z,10.00
2018-10-19T23:14:21.297Z,9.90
2018-10-19T23:16:25.371Z,9.90
2018-10-19T23:18:29.077Z,9.90
2018-10-19T23:20:34.351Z,9.80
2018-10-19T23:22:38.846Z,9.80
2018-10-19T23:24:42.698Z,9.70
2018-10-19T23:26:46.619Z,9.70
2018-10-19T23:28:52.137Z,9.70
2018-10-19T23:30:56.752Z,9.60
2018-10-19T23:33:00.524Z,9.60
2018-10-19T23:35:04.428Z,9.60
2018-10-19T23:37:08.143Z,9.60
2018-10-19T23:39:12.971Z,9.60
2018-10-19T23:41:17.810Z,9.60
2018-10-19T23:43:21.748Z,9.50
2018-10-19T23:45:25.713Z,9.50
2018-10-19T23:47:29.848Z,9.50
2018-10-19T23:49:33.535Z,9.50
2018-10-19T23:51:37.287Z,9.40
2018-10-19T23:53:41.023Z,9.40
2018-10-19T23:55:44.765Z,9.40
2018-10-19T23:57:48.609Z,9.40
2018-10-19T23:59:52.303Z,9.40
